createdAt,value
2023-01-20T00:00:47.022Z,100773.94
2023-01-20T00:04:08.902Z,100773.88
2023-01-20T00:07:30.695Z,100768.53
2023-01-20T00:10:51.866Z,100777.19
2023-01-20T00:14:15.237Z,100772.59
2023-01-20T00:17:36.475Z,100787.28
2023-01-20T00:20:57.830Z,100786.97
2023-01-20T00:24:19.466Z,100789.50
2023-01-20T00:27:41.202Z,100799.81
2023-01-20T00:31:13.459Z,100793.56
2023-01-20T00:34:35.662Z,100793.56
2023-01-20T00:37:57.029Z,100796.09
2023-01-20T00:41:20.320Z,100793.28
2023-01-20T00:44:41.691Z,100805.31
2023-01-20T00:48:05.095Z,100803.47
2023-01-20T00:51:26.524Z,100803.31
2023-01-20T00:54:48.207Z,100809.28
2023-01-20T00:58:09.945Z,100815.22
2023-01-20T01:01:31.090Z,100817.78
2023-01-20T01:04:54.209Z,100822.91
2023-01-20T01:08:16.096Z,100822.03
2023-01-20T01:11:37.483Z,100826.34
2023-01-20T01:14:59.343Z,100830.69
2023-01-20T01:18:21.287Z,100840.22
2023-01-20T01:21:44.347Z,100833.09
2023-01-20T01:25:08.204Z,100826.16
2023-01-20T01:28:30.119Z,100837.53
2023-01-20T01:31:52.037Z,100838.19
2023-01-20T01:35:13.973Z,100837.28
2023-01-20T01:38:36.892Z,100831.09
2023-01-20T01:41:58.711Z,100837.22
2023-01-20T01:45:24.229Z,100842.47
2023-01-20T01:48:47.113Z,100842.38
2023-01-20T01:52:10.807Z,100838.81
2023-01-20T01:55:38.319Z,100847.56
2023-01-20T01:59:03.337Z,100848.41
2023-01-20T02:02:27.764Z,100848.41
2023-01-20T02:05:52.379Z,100863.25
2023-01-20T02:09:15.030Z,100865.06
2023-01-20T02:12:38.382Z,100864.13
2023-01-20T02:16:09.936Z,100862.31
2023-01-20T02:20:03.836Z,100874.84
2023-01-20T02:23:46.802Z,100873.25
2023-01-20T02:27:14.257Z,100871.53
2023-01-20T02:30:56.376Z,100877.78
2023-01-20T02:34:29.271Z,100893.59
2023-01-20T02:38:05.717Z,100894.47
2023-01-20T02:41:36.437Z,100892.72
2023-01-20T02:45:04.061Z,100898.03
2023-01-20T02:48:30.156Z,100910.19
2023-01-20T02:51:58.055Z,100914.63
2023-01-20T02:55:26.454Z,100923.44
2023-01-20T02:58:51.641Z,100926.06
2023-01-20T03:02:20.290Z,100929.72
2023-01-20T03:05:46.193Z,100929.72
2023-01-20T03:09:12.777Z,100934.09
2023-01-20T03:12:41.105Z,100932.41
2023-01-20T03:16:07.017Z,100955.34
2023-01-20T03:19:29.207Z,100954.63
2023-01-20T03:22:51.067Z,100953.66
2023-01-20T03:26:16.413Z,100954.63
2023-01-20T03:29:38.799Z,100956.34
2023-01-20T03:33:00.954Z,100969.47
2023-01-20T03:36:25.900Z,100969.47
2023-01-20T03:39:47.589Z,100964.22
2023-01-20T03:43:16.635Z,100973.94
2023-01-20T03:46:44.583Z,100976.59
2023-01-20T03:50:11.426Z,100984.41
2023-01-20T03:53:41.966Z,100983.53
2023-01-20T03:57:10.305Z,100990.50
2023-01-20T04:00:36.644Z,100994.00
2023-01-20T04:03:59.075Z,100998.31
2023-01-20T04:07:23.370Z,101000.88
2023-01-20T04:10:50.197Z,101003.50
2023-01-20T04:14:12.187Z,101011.38
2023-01-20T04:17:35.180Z,101014.09
2023-01-20T04:21:00.138Z,101018.47
2023-01-20T04:24:26.316Z,101024.53
2023-01-20T04:27:47.789Z,101027.16
2023-01-20T04:31:28.696Z,101015.94
2023-01-20T04:34:53.480Z,101024.75
2023-01-20T04:38:15.154Z,101032.50
2023-01-20T04:41:36.754Z,101033.47
2023-01-20T04:44:57.898Z,101031.63
2023-01-20T04:48:19.727Z,101036.19
2023-01-20T04:51:43.414Z,101038.72
2023-01-20T04:55:05.743Z,101042.41
2023-01-20T04:58:27.338Z,101047.63
2023-01-20T05:01:49.167Z,101045.03
2023-01-20T05:05:10.994Z,101046.75
2023-01-20T05:08:34.235Z,101052.00
2023-01-20T05:11:55.772Z,101055.50
2023-01-20T05:15:17.684Z,101060.66
2023-01-20T05:18:39.632Z,101066.69
2023-01-20T05:22:01.201Z,101073.66
2023-01-20T05:25:23.982Z,101073.75
2023-01-20T05:28:46.213Z,101079.78
2023-01-20T05:32:07.479Z,101083.19
2023-01-20T05:35:29.463Z,101090.22
2023-01-20T05:38:51.051Z,101097.19
2023-01-20T05:42:14.180Z,101104.13
2023-01-20T05:45:36.083Z,101108.69
2023-01-20T05:48:57.810Z,101123.69
2023-01-20T05:52:19.884Z,101124.47
2023-01-20T05:55:41.718Z,101129.78
2023-01-20T05:59:06.233Z,101132.41
2023-01-20T06:02:27.720Z,101140.38
2023-01-20T06:05:50.054Z,101145.63
2023-01-20T06:09:12.268Z,101145.53
2023-01-20T06:12:33.712Z,101149.88
2023-01-20T06:15:57.007Z,101150.75
2023-01-20T06:19:18.413Z,101160.38
2023-01-20T06:22:40.108Z,101167.34
2023-01-20T06:26:03.431Z,101170.06
2023-01-20T06:29:25.009Z,101169.19
2023-01-20T06:32:49.094Z,101179.00
2023-01-20T06:36:13.617Z,101181.53
2023-01-20T06:39:35.255Z,101186.00
2023-01-20T06:42:58.800Z,101195.72
2023-01-20T06:46:20.372Z,101203.66
2023-01-20T06:49:43.251Z,101218.59
2023-01-20T06:53:05.037Z,101223.91
2023-01-20T06:56:27.022Z,101225.69
2023-01-20T06:59:48.799Z,101231.84
2023-01-20T07:03:13.973Z,101238.88
2023-01-20T07:06:39.594Z,101242.50
2023-01-20T07:10:01.050Z,101256.47
2023-01-20T07:13:22.916Z,101260.88
2023-01-20T07:16:44.386Z,101266.97
2023-01-20T07:20:06.773Z,101274.88
2023-01-20T07:23:32.189Z,101280.91
2023-01-20T07:26:54.564Z,101284.44
2023-01-20T07:30:16.854Z,101288.88
2023-01-20T07:33:38.733Z,101288.88
2023-01-20T07:37:01.433Z,101292.28
2023-01-20T07:40:24.461Z,101292.28
2023-01-20T07:43:47.782Z,101299.25
2023-01-20T07:47:09.673Z,101309.75
2023-01-20T07:50:31.665Z,101313.19
2023-01-20T07:53:53.491Z,101320.19
2023-01-20T07:57:16.548Z,101328.03
2023-01-20T08:00:38.283Z,101326.28
2023-01-20T08:04:01.522Z,101330.53
2023-01-20T08:07:23.767Z,101339.19
2023-01-20T08:10:47.691Z,101335.66
2023-01-20T08:14:10.956Z,101340.28
2023-01-20T08:17:32.433Z,101337.56
2023-01-20T08:20:54.104Z,101344.47
2023-01-20T08:24:15.928Z,101356.81
2023-01-20T08:27:37.642Z,101354.25
2023-01-20T08:31:06.572Z,101365.59
2023-01-20T08:34:28.576Z,101362.00
2023-01-20T08:37:50.170Z,101362.84
2023-01-20T08:41:13.914Z,101372.44
2023-01-20T08:44:35.687Z,101376.06
2023-01-20T08:47:59.201Z,101382.28
2023-01-20T08:51:23.867Z,101378.88
2023-01-20T08:54:45.621Z,101379.66
2023-01-20T08:58:07.529Z,101381.38
2023-01-20T09:01:31.465Z,101383.09
2023-01-20T09:04:54.721Z,101386.59
2023-01-20T09:08:18.287Z,101393.66
2023-01-20T09:11:41.439Z,101392.00
2023-01-20T09:15:07.535Z,101398.06
2023-01-20T09:18:29.140Z,101405.94
2023-01-20T09:21:52.344Z,101414.75
2023-01-20T09:25:14.401Z,101413.03
2023-01-20T09:28:37.122Z,101424.38
2023-01-20T09:31:59.147Z,101429.72
2023-01-20T09:35:21.040Z,101439.34
2023-01-20T09:39:00.975Z,101445.50
2023-01-20T09:42:48.765Z,101456.09
2023-01-20T09:46:15.480Z,101453.34
2023-01-20T09:50:04.698Z,101454.16
2023-01-20T09:53:38.720Z,101469.00
2023-01-20T09:57:03.068Z,101462.03
2023-01-20T10:00:28.549Z,101470.03
2023-01-20T10:03:55.800Z,101472.03
2023-01-20T10:07:25.553Z,101473.03
2023-01-20T10:10:52.903Z,101482.59
2023-01-20T10:14:22.883Z,101486.84
2023-01-20T10:17:51.763Z,101484.13
2023-01-20T10:21:19.115Z,101486.75
2023-01-20T10:24:47.595Z,101487.63
2023-01-20T10:28:13.681Z,101489.47
2023-01-20T10:31:41.401Z,101494.59
2023-01-20T10:35:10.851Z,101493.81
2023-01-20T10:38:41.906Z,101503.28
2023-01-20T10:42:05.991Z,101507.63
2023-01-20T10:45:38.242Z,101507.63
2023-01-20T10:49:38.495Z,101506.75
2023-01-20T10:53:22.508Z,101504.13
2023-01-20T10:56:53.383Z,101519.84
2023-01-20T11:00:23.606Z,101519.84
2023-01-20T11:03:49.412Z,101515.38
2023-01-20T11:07:19.132Z,101520.59
2023-01-20T11:10:42.402Z,101527.59
2023-01-20T11:14:04.671Z,101524.97
2023-01-20T11:17:26.420Z,101522.34
2023-01-20T11:20:50.058Z,101529.41
2023-01-20T11:24:37.429Z,101535.38
2023-01-20T11:28:02.792Z,101530.09
2023-01-20T11:31:37.249Z,101531.84
2023-01-20T11:35:00.348Z,101533.03
2023-01-20T11:38:24.901Z,101526.78
2023-01-20T11:41:46.401Z,101528.53
2023-01-20T11:45:26.131Z,101526.81
2023-01-20T11:48:47.585Z,101530.34
2023-01-20T11:52:21.070Z,101529.47
2023-01-20T11:55:48.771Z,101526.84
2023-01-20T11:59:21.130Z,101541.78
2023-01-20T12:02:45.438Z,101535.84
2023-01-20T12:06:16.041Z,101545.44
2023-01-20T12:09:40.438Z,101547.25
2023-01-20T12:13:08.404Z,101554.28
2023-01-20T12:16:33.821Z,101553.59
2023-01-20T12:20:04.984Z,101552.75
2023-01-20T12:23:39.223Z,101562.44
2023-01-20T12:27:01.801Z,101560.81
2023-01-20T12:30:40.321Z,101569.63
2023-01-20T12:34:05.317Z,101567.91
2023-01-20T12:37:39.471Z,101566.19
2023-01-20T12:41:08.803Z,101578.38
2023-01-20T12:44:38.026Z,101583.59
2023-01-20T12:48:14.607Z,101588.75
2023-01-20T12:51:45.969Z,101592.31
2023-01-20T12:55:22.321Z,101590.91
2023-01-20T12:58:53.462Z,101605.91
2023-01-20T13:02:54.920Z,101610.34
2023-01-20T13:06:51.924Z,101620.16
2023-01-20T13:10:39.609Z,101628.97
2023-01-20T13:14:09.690Z,101632.59
2023-01-20T13:17:39.735Z,101629.00
2023-01-20T13:21:01.384Z,101644.47
2023-01-20T13:24:29.333Z,101645.97
2023-01-20T13:27:54.522Z,101639.72
2023-01-20T13:31:43.209Z,101651.13
2023-01-20T13:35:44.158Z,101656.25
2023-01-20T13:39:41.157Z,101662.44
2023-01-20T13:43:04.641Z,101661.41
2023-01-20T13:46:49.929Z,101662.47
2023-01-20T13:50:24.268Z,101668.91
2023-01-20T13:53:48.314Z,101669.63
2023-01-20T13:57:46.460Z,101667.72
2023-01-20T14:01:14.945Z,101664.94
2023-01-20T14:04:37.407Z,101677.16
2023-01-20T14:07:59.933Z,101678.97
2023-01-20T14:11:24.393Z,101676.38
2023-01-20T14:14:49.316Z,101676.41
2023-01-20T14:18:18.573Z,101688.66
2023-01-20T14:21:42.396Z,101686.03
2023-01-20T14:25:04.377Z,101688.66
2023-01-20T14:28:26.462Z,101695.56
2023-01-20T14:31:48.203Z,101694.72
2023-01-20T14:35:17.539Z,101709.59
2023-01-20T14:38:55.796Z,101709.69
2023-01-20T14:42:21.039Z,101710.47
2023-01-20T14:45:47.131Z,101729.56
2023-01-20T14:49:09.157Z,101733.22
2023-01-20T14:52:32.860Z,101734.31
2023-01-20T14:56:01.907Z,101742.28
2023-01-20T14:59:24.370Z,101751.31
2023-01-20T15:03:01.331Z,101751.09
2023-01-20T15:06:30.998Z,101765.75
2023-01-20T15:09:58.004Z,101769.16
2023-01-20T15:13:24.331Z,101776.16
2023-01-20T15:16:49.471Z,101789.16
2023-01-20T15:20:29.527Z,101783.84
2023-01-20T15:23:52.706Z,101801.28
2023-01-20T15:27:36.825Z,101801.31
2023-01-20T15:31:00.393Z,101809.25
2023-01-20T15:34:22.846Z,101810.09
2023-01-20T15:37:45.124Z,101817.16
2023-01-20T15:41:06.812Z,101826.84
2023-01-20T15:44:29.474Z,101835.03
2023-01-20T15:47:50.967Z,101840.22
2023-01-20T15:51:15.956Z,101849.69
2023-01-20T15:54:37.797Z,101856.78
2023-01-20T15:57:59.583Z,101859.44
2023-01-20T16:01:25.131Z,101865.22
2023-01-20T16:04:46.934Z,101873.03
2023-01-20T16:08:15.211Z,101879.94
2023-01-20T16:11:36.853Z,101886.72
2023-01-20T16:14:58.710Z,101890.19
2023-01-20T16:18:21.482Z,101897.22
2023-01-20T16:21:45.397Z,101902.47
2023-01-20T16:25:08.332Z,101908.53
2023-01-20T16:28:30.125Z,101909.19
2023-01-20T16:31:51.583Z,101909.97
2023-01-20T16:35:15.155Z,101916.94
2023-01-20T16:38:36.877Z,101922.22
2023-01-20T16:41:58.198Z,101934.50
2023-01-20T16:45:26.501Z,101928.38
2023-01-20T16:48:48.111Z,101929.19
2023-01-20T16:52:13.888Z,101930.09
2023-01-20T16:55:35.661Z,101933.63
2023-01-20T16:58:58.745Z,101926.75
2023-01-20T17:02:20.478Z,101943.47
2023-01-20T17:05:42.847Z,101952.63
2023-01-20T17:09:06.676Z,101963.28
2023-01-20T17:12:28.558Z,101964.91
2023-01-20T17:15:52.466Z,101964.84
2023-01-20T17:19:16.114Z,101974.69
2023-01-20T17:22:40.192Z,101974.69
2023-01-20T17:26:04.502Z,101982.47
2023-01-20T17:29:26.223Z,101985.03
2023-01-20T17:32:49.095Z,101987.78
2023-01-20T17:36:11.922Z,101992.00
2023-01-20T17:39:33.249Z,101988.69
2023-01-20T17:42:56.407Z,101995.75
2023-01-20T17:46:19.879Z,102007.88
2023-01-20T17:49:41.705Z,102014.44
2023-01-20T17:53:03.558Z,102020.59
2023-01-20T17:56:25.862Z,102023.16
2023-01-20T17:59:49.033Z,102022.25
2023-01-20T18:03:10.622Z,102030.16
2023-01-20T18:06:34.954Z,102034.53
2023-01-20T18:09:56.670Z,102027.78
2023-01-20T18:13:18.375Z,102036.38
2023-01-20T18:16:42.169Z,102043.38
2023-01-20T18:20:03.689Z,102042.03
2023-01-20T18:23:25.519Z,102045.41
2023-01-20T18:26:47.374Z,102058.50
2023-01-20T18:30:10.416Z,102055.75
2023-01-20T18:33:34.210Z,102071.38
2023-01-20T18:36:56.928Z,102074.75
2023-01-20T18:40:19.232Z,102075.59
2023-01-20T18:43:41.720Z,102079.03
2023-01-20T18:47:03.668Z,102082.47
2023-01-20T18:50:26.698Z,102081.59
2023-01-20T18:53:55.377Z,102082.47
2023-01-20T18:57:17.032Z,102081.72
2023-01-20T19:00:38.416Z,102085.94
2023-01-20T19:04:00.449Z,102099.94
2023-01-20T19:07:23.248Z,102094.72
2023-01-20T19:10:46.067Z,102099.13
2023-01-20T19:14:09.439Z,102095.69
2023-01-20T19:17:32.986Z,102104.44
2023-01-20T19:20:55.048Z,102110.66
2023-01-20T19:24:22.320Z,102107.13
2023-01-20T19:27:43.813Z,102115.91
2023-01-20T19:31:07.493Z,102129.78
2023-01-20T19:34:30.540Z,102126.31
2023-01-20T19:37:52.314Z,102122.06
2023-01-20T19:41:17.289Z,102139.09
2023-01-20T19:44:39.112Z,102135.47
2023-01-20T19:48:03.304Z,102129.47
2023-01-20T19:51:25.286Z,102132.13
2023-01-20T19:54:47.249Z,102139.81
2023-01-20T19:58:10.487Z,102143.16
2023-01-20T20:01:34.505Z,102143.09
2023-01-20T20:04:56.262Z,102147.53
2023-01-20T20:08:17.602Z,102149.47
2023-01-20T20:11:40.283Z,102156.44
2023-01-20T20:15:03.415Z,102162.56
2023-01-20T20:18:26.776Z,102167.13
2023-01-20T20:21:48.635Z,102169.94
2023-01-20T20:25:11.606Z,102168.41
2023-01-20T20:28:33.456Z,102176.22
2023-01-20T20:31:56.623Z,102182.75
2023-01-20T20:35:18.616Z,102186.38
2023-01-20T20:38:40.445Z,102191.31
2023-01-20T20:42:02.490Z,102184.41
2023-01-20T20:45:23.784Z,102206.31
2023-01-20T20:48:46.490Z,102206.44
2023-01-20T20:52:08.728Z,102208.88
2023-01-20T20:55:30.446Z,102205.25
2023-01-20T20:59:01.609Z,102207.91
2023-01-20T21:02:24.109Z,102211.25
2023-01-20T21:05:49.479Z,102217.34
2023-01-20T21:09:11.413Z,102223.44
2023-01-20T21:12:33.416Z,102224.19
2023-01-20T21:16:00.596Z,102222.44
2023-01-20T21:19:22.382Z,102231.22
2023-01-20T21:22:45.283Z,102236.34
2023-01-20T21:26:09.368Z,102244.25
2023-01-20T21:29:31.440Z,102248.78
2023-01-20T21:32:54.247Z,102247.72
2023-01-20T21:36:16.573Z,102258.19
2023-01-20T21:39:39.823Z,102258.38
2023-01-20T21:43:30.123Z,102265.63
2023-01-20T21:46:52.175Z,102268.97
2023-01-20T21:50:31.350Z,102268.81
2023-01-20T21:53:52.990Z,102268.59
2023-01-20T21:57:15.858Z,102266.81
2023-01-20T22:00:37.624Z,102273.66
2023-01-20T22:03:59.469Z,102277.97
2023-01-20T22:07:21.484Z,102300.72
2023-01-20T22:10:42.923Z,102284.94
2023-01-20T22:14:06.141Z,102305.97
2023-01-20T22:17:27.502Z,102300.09
2023-01-20T22:20:49.298Z,102318.59
2023-01-20T22:24:12.164Z,102314.25
2023-01-20T22:27:34.126Z,102311.63
2023-01-20T22:30:57.919Z,102308.84
2023-01-20T22:34:19.574Z,102314.03
2023-01-20T22:37:41.359Z,102318.41
2023-01-20T22:41:04.255Z,102320.34
2023-01-20T22:44:26.152Z,102322.88
2023-01-20T22:47:49.401Z,102326.44
2023-01-20T22:51:13.712Z,102329.06
2023-01-20T22:54:35.505Z,102337.88
2023-01-20T22:57:56.978Z,102340.50
2023-01-20T23:01:20.986Z,102338.63
2023-01-20T23:04:43.898Z,102343.06
2023-01-20T23:08:06.030Z,102343.13
2023-01-20T23:11:28.175Z,102341.34
2023-01-20T23:15:01.321Z,102342.25
2023-01-20T23:18:23.223Z,102350.16
2023-01-20T23:21:46.120Z,102351.78
2023-01-20T23:25:09.047Z,102363.06
2023-01-20T23:28:31.074Z,102354.47
2023-01-20T23:31:52.677Z,102357.19
2023-01-20T23:35:14.532Z,102365.00
2023-01-20T23:38:37.793Z,102370.19
2023-01-20T23:41:59.481Z,102359.69
2023-01-20T23:45:20.787Z,102355.34
2023-01-20T23:48:42.576Z,102353.63
2023-01-20T23:52:04.416Z,102351.06
2023-01-20T23:55:27.374Z,102348.41
2023-01-20T23:58:49.084Z,102353.63
